createdAt,value
2022-08-19T00:01:31.149Z,11.40
2022-08-19T00:03:59.667Z,11.20
2022-08-19T00:06:29.921Z,10.63
2022-08-19T00:08:57.190Z,11.37
2022-08-19T00:11:25.463Z,11.10
2022-08-19T00:13:53.490Z,12.60
2022-08-19T00:16:25.259Z,11.70
2022-08-19T00:18:56.166Z,11.13
2022-08-19T00:21:27.571Z,12.33
2022-08-19T00:23:55.628Z,11.23
2022-08-19T00:26:22.306Z,12.03
2022-08-19T00:28:48.894Z,13.50
2022-08-19T00:31:18.210Z,12.10
2022-08-19T00:33:45.106Z,11.47
2022-08-19T00:36:12.356Z,11.13
2022-08-19T00:38:43.797Z,12.20
2022-08-19T00:41:14.152Z,12.63
2022-08-19T00:43:42.076Z,14.00
2022-08-19T00:46:08.812Z,12.50
2022-08-19T00:48:36.370Z,14.77
2022-08-19T00:51:05.046Z,13.40
2022-08-19T00:53:33.498Z,13.13
2022-08-19T00:56:02.325Z,14.97
2022-08-19T00:58:32.690Z,14.63
2022-08-19T01:00:59.481Z,15.53
2022-08-19T01:03:26.086Z,16.03
2022-08-19T01:05:56.639Z,13.50
2022-08-19T01:08:24.495Z,12.70
2022-08-19T01:10:58.506Z,13.70
2022-08-19T01:13:29.568Z,14.70
2022-08-19T01:16:15.921Z,14.57
2022-08-19T01:18:43.461Z,16.07
2022-08-19T01:21:36.029Z,15.67
2022-08-19T01:24:02.808Z,15.50
2022-08-19T01:26:31.296Z,15.43
2022-08-19T01:29:00.805Z,16.60
2022-08-19T01:31:33.203Z,16.00
2022-08-19T01:34:00.967Z,16.90
2022-08-19T01:36:37.201Z,16.47
2022-08-19T01:39:07.861Z,17.70
2022-08-19T01:41:35.192Z,18.43
2022-08-19T01:44:17.670Z,17.10
2022-08-19T01:46:48.212Z,17.30
2022-08-19T01:49:19.354Z,16.93
2022-08-19T01:51:46.431Z,17.70
2022-08-19T01:54:23.394Z,16.60
2022-08-19T01:57:07.685Z,17.40
2022-08-19T01:59:37.460Z,15.67
2022-08-19T02:02:08.442Z,15.73
2022-08-19T02:04:35.995Z,17.03
2022-08-19T02:07:02.678Z,16.87
2022-08-19T02:09:29.588Z,16.90
2022-08-19T02:11:56.647Z,17.27
2022-08-19T02:14:23.326Z,18.00
2022-08-19T02:16:49.960Z,17.20
2022-08-19T02:19:18.771Z,15.43
2022-08-19T02:21:45.526Z,17.10
2022-08-19T02:24:13.211Z,16.53
2022-08-19T02:26:40.200Z,16.30
2022-08-19T02:29:08.591Z,15.47
2022-08-19T02:31:35.298Z,18.00
2022-08-19T02:34:04.488Z,16.03
2022-08-19T02:36:31.333Z,16.63
2022-08-19T02:38:57.980Z,16.40
2022-08-19T02:41:27.671Z,17.87
2022-08-19T02:44:22.884Z,18.43
2022-08-19T02:46:48.160Z,17.20
2022-08-19T02:49:17.338Z,17.67
2022-08-19T02:51:45.961Z,16.03
2022-08-19T02:54:15.958Z,15.47
2022-08-19T02:56:44.489Z,16.73
2022-08-19T02:59:12.901Z,16.73
2022-08-19T03:01:42.246Z,17.40
2022-08-19T03:04:14.128Z,17.53
2022-08-19T03:06:42.925Z,18.80
2022-08-19T03:09:09.849Z,17.57
2022-08-19T03:11:43.805Z,19.47
2022-08-19T03:14:11.277Z,19.00
2022-08-19T03:16:47.233Z,19.40
2022-08-19T03:19:15.353Z,18.73
2022-08-19T03:21:45.478Z,20.40
2022-08-19T03:24:12.764Z,17.87
2022-08-19T03:26:44.053Z,18.50
2022-08-19T03:29:16.323Z,19.03
2022-08-19T03:31:56.868Z,17.87
2022-08-19T03:34:28.629Z,19.50
2022-08-19T03:36:59.626Z,19.73
2022-08-19T03:39:27.463Z,20.67
2022-08-19T03:42:30.089Z,21.50
2022-08-19T03:44:45.895Z,20.73
2022-08-19T03:47:17.134Z,20.17
2022-08-19T03:49:44.117Z,19.67
2022-08-19T03:52:10.850Z,20.47
2022-08-19T03:54:38.961Z,20.50
2022-08-19T03:57:06.517Z,20.17
2022-08-19T03:59:36.308Z,20.60
2022-08-19T04:02:09.995Z,20.57
2022-08-19T04:04:38.530Z,19.73
2022-08-19T04:07:05.633Z,19.23
2022-08-19T04:09:34.892Z,19.13
2022-08-19T04:12:01.554Z,18.20
2022-08-19T04:14:33.383Z,18.87
2022-08-19T04:17:01.776Z,17.87
2022-08-19T04:19:33.256Z,17.20
2022-08-19T04:22:02.109Z,16.27
2022-08-19T04:24:28.889Z,15.70
2022-08-19T04:26:55.507Z,15.77
2022-08-19T04:29:26.225Z,15.87
2022-08-19T04:31:56.558Z,15.70
2022-08-19T04:34:25.250Z,15.13
2022-08-19T04:36:56.253Z,15.07
2022-08-19T04:39:50.176Z,14.07
2022-08-19T04:42:36.472Z,13.40
2022-08-19T04:45:13.881Z,14.03
2022-08-19T04:47:47.998Z,13.73
2022-08-19T04:50:25.848Z,13.23
2022-08-19T04:52:53.488Z,13.93
2022-08-19T04:55:20.329Z,13.73
2022-08-19T04:57:52.184Z,12.73
2022-08-19T05:00:19.186Z,13.33
2022-08-19T05:02:45.895Z,11.80
2022-08-19T05:05:13.494Z,12.20
2022-08-19T05:07:42.076Z,12.60
2022-08-19T05:10:11.993Z,12.40
2022-08-19T05:12:39.115Z,11.57
2022-08-19T05:15:09.615Z,12.10
2022-08-19T05:18:04.165Z,11.33
2022-08-19T05:20:49.518Z,11.63
2022-08-19T05:23:20.543Z,11.47
2022-08-19T05:26:01.272Z,11.10
2022-08-19T05:28:38.872Z,11.23
2022-08-19T05:31:05.681Z,10.67
2022-08-19T05:33:32.311Z,10.43
2022-08-19T05:35:59.695Z,10.70
2022-08-19T05:38:29.759Z,10.17
2022-08-19T05:40:59.771Z,10.57
2022-08-19T05:43:28.882Z,10.40
2022-08-19T05:45:56.143Z,9.20
2022-08-19T05:48:31.231Z,10.07
2022-08-19T05:50:59.615Z,9.80
2022-08-19T05:53:28.904Z,8.93
2022-08-19T05:55:58.554Z,9.57
2022-08-19T05:58:33.906Z,9.03
2022-08-19T06:01:05.430Z,8.90
2022-08-19T06:03:34.314Z,10.07
2022-08-19T06:06:01.119Z,9.43
2022-08-19T06:08:34.220Z,10.17
2022-08-19T06:11:14.286Z,10.27
2022-08-19T06:13:44.933Z,9.93
2022-08-19T06:16:11.626Z,11.10
2022-08-19T06:18:38.291Z,10.37
2022-08-19T06:21:05.455Z,11.13
2022-08-19T06:23:32.149Z,11.87
2022-08-19T06:26:01.527Z,11.70
2022-08-19T06:28:28.435Z,12.07
2022-08-19T06:30:57.994Z,13.37
2022-08-19T06:33:33.996Z,12.40
2022-08-19T06:36:00.791Z,13.03
2022-08-19T06:38:30.346Z,13.90
2022-08-19T06:41:07.397Z,13.90
2022-08-19T06:43:35.158Z,13.50
2022-08-19T06:46:05.011Z,15.80
2022-08-19T06:48:45.071Z,15.70
2022-08-19T06:51:19.336Z,15.50
2022-08-19T06:53:48.267Z,15.90
2022-08-19T06:56:21.992Z,14.90
2022-08-19T06:58:53.492Z,15.27
2022-08-19T07:01:20.896Z,15.67
2022-08-19T07:03:47.872Z,15.70
2022-08-19T07:09:20.517Z,15.10
2022-08-19T07:11:53.464Z,14.20
2022-08-19T07:14:26.402Z,15.70
2022-08-19T07:16:55.863Z,13.63
2022-08-19T07:19:24.631Z,14.13
2022-08-19T07:21:53.827Z,14.13
2022-08-19T07:24:24.776Z,13.80
2022-08-19T07:26:56.302Z,13.90
2022-08-19T07:29:24.102Z,13.37
2022-08-19T07:31:53.143Z,12.90
2022-08-19T07:34:27.627Z,12.13
2022-08-19T07:36:55.542Z,12.53
2022-08-19T07:39:34.204Z,12.97
2022-08-19T07:42:04.259Z,11.83
2022-08-19T07:44:31.091Z,12.40
2022-08-19T07:46:58.629Z,12.20
2022-08-19T07:49:25.782Z,11.53
2022-08-19T07:51:58.646Z,12.10
2022-08-19T07:54:27.061Z,12.80
2022-08-19T07:56:57.726Z,12.10
2022-08-19T07:59:24.944Z,11.67
2022-08-19T08:01:52.184Z,11.57
2022-08-19T08:04:38.576Z,9.93
2022-08-19T08:07:25.366Z,9.90
2022-08-19T08:10:02.869Z,9.60
2022-08-19T08:12:52.614Z,8.87
2022-08-19T08:15:33.231Z,8.30
2022-08-19T08:18:00.007Z,7.10
2022-08-19T08:20:26.705Z,7.00
2022-08-19T08:23:35.028Z,7.13
2022-08-19T08:26:03.127Z,5.77
2022-08-19T08:28:30.159Z,6.43
2022-08-19T08:30:58.601Z,6.43
2022-08-19T08:33:33.492Z,6.60
2022-08-19T08:36:03.810Z,6.70
2022-08-19T08:38:38.996Z,6.77
2022-08-19T08:41:23.286Z,7.47
2022-08-19T08:43:53.154Z,5.87
2022-08-19T08:46:48.928Z,7.20
2022-08-19T08:49:29.389Z,6.60
2022-08-19T08:52:08.695Z,6.40
2022-08-19T08:54:54.679Z,6.93
2022-08-19T08:57:33.746Z,6.47
2022-08-19T09:00:22.019Z,6.77
2022-08-19T09:02:50.961Z,5.63
2022-08-19T09:05:22.610Z,5.87
2022-08-19T09:08:07.382Z,7.00
2022-08-19T09:10:58.984Z,5.50
2022-08-19T09:13:28.050Z,6.20
2022-08-19T09:16:10.473Z,5.23
2022-08-19T09:18:59.987Z,4.50
2022-08-19T09:21:30.327Z,5.37
2022-08-19T09:24:03.693Z,5.73
2022-08-19T09:26:47.637Z,4.83
2022-08-19T09:29:22.442Z,5.73
2022-08-19T09:31:56.892Z,5.50
2022-08-19T09:34:23.550Z,4.70
2022-08-19T09:36:54.476Z,5.40
2022-08-19T09:39:35.763Z,4.90
2022-08-19T09:42:05.851Z,5.07
2022-08-19T09:44:43.576Z,4.73
2022-08-19T09:47:12.460Z,4.20
2022-08-19T09:49:41.909Z,4.70
2022-08-19T09:52:13.636Z,4.40
2022-08-19T09:54:40.375Z,4.20
2022-08-19T09:57:13.638Z,3.77
2022-08-19T09:59:40.959Z,4.10
2022-08-19T10:02:11.161Z,4.90
2022-08-19T10:04:58.960Z,3.50
2022-08-19T10:07:36.553Z,3.67
2022-08-19T10:10:13.185Z,3.87
2022-08-19T10:12:40.322Z,3.10
2022-08-19T10:15:09.970Z,4.50
2022-08-19T10:17:48.037Z,3.60
2022-08-19T10:20:26.609Z,3.37
2022-08-19T10:22:53.506Z,3.57
2022-08-19T10:25:20.304Z,3.40
2022-08-19T10:27:53.020Z,3.43
2022-08-19T10:30:22.979Z,3.30
2022-08-19T10:32:51.809Z,3.50
2022-08-19T10:35:21.920Z,3.43
2022-08-19T10:38:01.970Z,3.37
2022-08-19T10:40:29.777Z,3.33
2022-08-19T10:43:00.041Z,3.40
2022-08-19T10:45:28.122Z,3.67
2022-08-19T10:47:55.142Z,3.70
2022-08-19T10:50:41.545Z,3.30
2022-08-19T10:53:13.503Z,3.40
2022-08-19T10:55:59.276Z,3.00
2022-08-19T10:58:28.361Z,3.70
2022-08-19T11:01:01.325Z,3.40
2022-08-19T11:03:31.615Z,3.20
2022-08-19T11:06:04.470Z,3.00
2022-08-19T11:08:32.154Z,3.27
2022-08-19T11:11:02.138Z,3.30
2022-08-19T11:13:34.427Z,3.67
2022-08-19T11:16:07.330Z,3.07
2022-08-19T11:18:37.225Z,3.30
2022-08-19T11:21:21.083Z,2.90
2022-08-19T11:23:49.836Z,3.50
2022-08-19T11:26:17.354Z,3.00
2022-08-19T11:28:46.811Z,3.30
2022-08-19T11:31:19.871Z,3.17
2022-08-19T11:33:47.770Z,3.13
2022-08-19T11:36:18.425Z,3.13
2022-08-19T11:38:46.114Z,3.30
2022-08-19T11:41:13.065Z,3.30
2022-08-19T11:43:40.918Z,2.93
2022-08-19T11:46:09.547Z,2.93
2022-08-19T11:48:38.010Z,3.20
2022-08-19T11:51:13.145Z,3.00
2022-08-19T11:53:40.411Z,3.23
2022-08-19T11:56:09.086Z,2.90
2022-08-19T11:58:36.347Z,3.30
2022-08-19T12:01:07.123Z,3.00
2022-08-19T12:03:37.127Z,3.20
2022-08-19T12:06:13.672Z,3.37
2022-08-19T12:08:45.246Z,3.10
2022-08-19T12:11:14.799Z,3.57
2022-08-19T12:13:42.574Z,2.70
2022-08-19T12:16:15.951Z,2.87
2022-08-19T12:18:47.366Z,3.17
2022-08-19T12:21:15.556Z,3.00
2022-08-19T12:23:43.089Z,2.83
2022-08-19T12:26:11.350Z,3.20
2022-08-19T12:28:38.745Z,3.10
2022-08-19T12:31:06.370Z,3.10
2022-08-19T12:33:33.227Z,3.17
2022-08-19T12:36:06.376Z,2.80
2022-08-19T12:38:35.481Z,3.00
2022-08-19T12:41:04.391Z,2.70
2022-08-19T12:43:31.365Z,2.90
2022-08-19T12:46:00.489Z,2.77
2022-08-19T12:48:33.368Z,2.70
2022-08-19T12:51:16.363Z,3.03
2022-08-19T12:53:43.668Z,2.80
2022-08-19T12:56:15.675Z,2.87
2022-08-19T12:58:49.047Z,2.90
2022-08-19T13:01:18.405Z,3.30
2022-08-19T13:03:49.360Z,3.00
2022-08-19T13:06:19.528Z,3.00
2022-08-19T13:08:47.383Z,2.90
2022-08-19T13:11:20.638Z,3.00
2022-08-19T13:13:49.122Z,3.10
2022-08-19T13:16:16.234Z,3.23
2022-08-19T13:18:52.850Z,3.33
2022-08-19T13:21:21.541Z,3.43
2022-08-19T13:23:50.763Z,3.60
2022-08-19T13:26:21.050Z,3.40
2022-08-19T13:29:09.443Z,3.40
2022-08-19T13:31:55.798Z,3.60
2022-08-19T13:34:35.015Z,3.10
2022-08-19T13:37:06.337Z,3.50
2022-08-19T13:39:38.946Z,4.00
2022-08-19T13:42:10.383Z,3.23
2022-08-19T13:44:37.391Z,3.30
2022-08-19T13:47:07.793Z,3.53
2022-08-19T13:49:36.853Z,3.17
2022-08-19T13:52:05.617Z,3.00
2022-08-19T13:54:32.248Z,3.40
2022-08-19T13:56:58.908Z,3.10
2022-08-19T13:59:28.569Z,3.10
2022-08-19T14:01:59.343Z,3.20
2022-08-19T14:04:26.152Z,3.10
2022-08-19T14:06:52.853Z,3.30
2022-08-19T14:09:22.327Z,2.90
2022-08-19T14:11:52.340Z,3.27
2022-08-19T14:14:22.435Z,3.30
2022-08-19T14:16:55.709Z,3.00
2022-08-19T14:19:25.094Z,3.30
2022-08-19T14:22:04.733Z,3.30
2022-08-19T14:24:31.579Z,3.37
2022-08-19T14:27:07.159Z,3.73
2022-08-19T14:29:36.145Z,3.23
2022-08-19T14:32:02.977Z,3.30
2022-08-19T14:34:29.845Z,3.80
2022-08-19T14:36:56.640Z,3.20
2022-08-19T14:39:26.494Z,3.30
2022-08-19T14:41:53.145Z,3.47
2022-08-19T14:44:20.604Z,3.80
2022-08-19T14:46:56.522Z,3.70
2022-08-19T14:49:26.791Z,3.70
2022-08-19T14:52:05.105Z,3.70
2022-08-19T14:54:31.938Z,3.97
2022-08-19T14:56:58.629Z,4.27
2022-08-19T14:59:25.667Z,3.90
2022-08-19T15:02:33.964Z,3.43
2022-08-19T15:04:58.266Z,3.90
2022-08-19T15:07:28.998Z,3.77
2022-08-19T15:09:56.562Z,4.00
2022-08-19T15:12:25.772Z,3.60
2022-08-19T15:14:58.127Z,3.60
2022-08-19T15:17:32.396Z,3.60
2022-08-19T15:20:14.958Z,3.70
2022-08-19T15:22:45.619Z,3.83
2022-08-19T15:25:17.302Z,3.77
2022-08-19T15:27:44.442Z,3.40
2022-08-19T15:30:12.302Z,3.97
2022-08-19T15:32:49.034Z,3.60
2022-08-19T15:35:16.237Z,3.43
2022-08-19T15:37:43.381Z,3.63
2022-08-19T15:40:15.797Z,3.20
2022-08-19T15:42:46.798Z,3.83
2022-08-19T15:45:15.711Z,3.27
2022-08-19T15:47:51.229Z,3.80
2022-08-19T15:50:21.418Z,3.70
2022-08-19T15:52:56.948Z,3.67
2022-08-19T15:55:36.090Z,3.47
2022-08-19T15:58:28.425Z,3.70
2022-08-19T16:01:40.818Z,3.80
2022-08-19T16:04:29.189Z,3.40
2022-08-19T16:07:00.269Z,3.90
2022-08-19T16:09:30.183Z,3.90
2022-08-19T16:12:06.479Z,3.80
2022-08-19T16:14:35.361Z,3.20
2022-08-19T16:17:14.789Z,3.03
2022-08-19T16:19:41.557Z,3.00
2022-08-19T16:22:10.003Z,3.43
2022-08-19T16:24:40.165Z,2.90
2022-08-19T16:27:07.186Z,3.00
2022-08-19T16:29:39.500Z,3.40
2022-08-19T16:32:16.327Z,3.73
2022-08-19T16:34:43.622Z,3.70
2022-08-19T16:37:10.448Z,3.87
2022-08-19T16:39:45.179Z,3.30
2022-08-19T16:42:12.824Z,3.57
2022-08-19T16:44:48.828Z,3.27
2022-08-19T16:47:17.908Z,3.20
2022-08-19T16:49:52.454Z,3.33
2022-08-19T16:52:21.652Z,3.03
2022-08-19T16:54:48.594Z,3.40
2022-08-19T16:57:16.586Z,3.23
2022-08-19T16:59:49.267Z,3.50
2022-08-19T17:02:21.939Z,3.60
2022-08-19T17:04:55.745Z,3.40
2022-08-19T17:07:26.203Z,3.37
2022-08-19T17:09:52.932Z,3.30
2022-08-19T17:12:19.677Z,4.53
2022-08-19T17:14:46.362Z,3.73
2022-08-19T17:17:15.763Z,3.70
2022-08-19T17:19:44.625Z,3.63
2022-08-19T17:22:13.016Z,3.30
2022-08-19T17:24:40.648Z,3.57
2022-08-19T17:27:09.984Z,3.50
2022-08-19T17:29:36.737Z,3.60
2022-08-19T17:32:06.595Z,4.10
2022-08-19T17:34:33.678Z,3.43
2022-08-19T17:37:07.945Z,3.70
2022-08-19T17:39:37.806Z,3.63
2022-08-19T17:42:08.146Z,3.30
2022-08-19T17:44:36.721Z,3.70
2022-08-19T17:47:04.562Z,3.20
2022-08-19T17:49:33.315Z,3.60
2022-08-19T17:52:00.575Z,3.70
2022-08-19T17:54:33.587Z,4.63
2022-08-19T17:57:01.476Z,5.70
2022-08-19T17:59:29.942Z,4.00
2022-08-19T18:02:03.302Z,3.50
2022-08-19T18:04:30.672Z,3.43
2022-08-19T18:06:57.523Z,3.00
2022-08-19T18:09:27.398Z,3.70
2022-08-19T18:11:59.177Z,3.57
2022-08-19T18:14:34.097Z,3.20
2022-08-19T18:19:56.124Z,3.47
2022-08-19T18:22:26.606Z,3.80
2022-08-19T18:24:57.353Z,3.60
2022-08-19T18:27:26.257Z,4.00
2022-08-19T18:29:54.563Z,3.80
2022-08-19T18:32:38.151Z,3.60
2022-08-19T18:35:16.263Z,3.53
2022-08-19T18:37:44.261Z,3.93
2022-08-19T18:40:38.074Z,3.90
2022-08-19T18:43:11.512Z,3.60
2022-08-19T18:45:58.153Z,3.80
2022-08-19T18:48:43.636Z,4.47
2022-08-19T18:51:10.530Z,4.70
2022-08-19T18:53:39.377Z,3.90
2022-08-19T18:56:08.055Z,4.17
2022-08-19T18:58:36.555Z,4.00
2022-08-19T19:01:32.246Z,4.33
2022-08-19T19:04:01.828Z,4.43
2022-08-19T19:06:39.370Z,4.37
2022-08-19T19:09:26.801Z,4.57
2022-08-19T19:12:04.118Z,4.73
2022-08-19T19:14:50.571Z,5.00
2022-08-19T19:17:17.753Z,5.37
2022-08-19T19:19:44.851Z,5.40
2022-08-19T19:22:27.535Z,5.50
2022-08-19T19:24:55.254Z,5.40
2022-08-19T19:27:22.167Z,6.07
2022-08-19T19:29:52.751Z,6.40
2022-08-19T19:32:40.346Z,6.60
2022-08-19T19:35:30.231Z,6.37
2022-08-19T19:38:02.712Z,6.90
2022-08-19T19:40:29.668Z,6.37
2022-08-19T19:42:56.383Z,5.60
2022-08-19T19:45:23.354Z,6.77
2022-08-19T19:47:50.195Z,6.23
2022-08-19T19:50:28.233Z,6.67
2022-08-19T19:52:55.265Z,6.10
2022-08-19T19:55:22.442Z,6.83
2022-08-19T19:57:56.356Z,6.43
2022-08-19T20:00:23.416Z,6.20
2022-08-19T20:02:51.066Z,6.30
2022-08-19T20:05:26.924Z,5.87
2022-08-19T20:08:13.667Z,6.20
2022-08-19T20:10:42.183Z,6.60
2022-08-19T20:13:09.751Z,5.80
2022-08-19T20:15:42.580Z,6.30
2022-08-19T20:18:10.756Z,6.30
2022-08-19T20:20:37.459Z,6.23
2022-08-19T20:23:12.002Z,6.37
2022-08-19T20:25:39.308Z,6.57
2022-08-19T20:28:05.968Z,6.60
2022-08-19T20:30:33.300Z,6.47
2022-08-19T20:33:09.561Z,6.50
2022-08-19T20:35:37.241Z,5.90
2022-08-19T20:38:11.942Z,6.50
2022-08-19T20:40:39.281Z,6.87
2022-08-19T20:43:13.300Z,6.20
2022-08-19T20:45:40.539Z,6.73
2022-08-19T20:48:08.686Z,6.10
2022-08-19T20:50:36.313Z,6.23
2022-08-19T20:53:14.490Z,6.90
2022-08-19T20:55:44.507Z,6.40
2022-08-19T20:58:12.640Z,6.77
2022-08-19T21:00:40.791Z,6.80
2022-08-19T21:03:07.451Z,6.10
2022-08-19T21:05:34.170Z,6.50
2022-08-19T21:08:01.058Z,6.50
2022-08-19T21:10:27.799Z,6.67
2022-08-19T21:13:00.416Z,6.40
2022-08-19T21:15:27.181Z,6.03
2022-08-19T21:17:53.971Z,6.10
2022-08-19T21:20:20.819Z,6.20
2022-08-19T21:22:47.600Z,6.43
2022-08-19T21:25:18.550Z,6.60
2022-08-19T21:27:45.346Z,6.60
2022-08-19T21:30:15.168Z,7.40
2022-08-19T21:32:41.907Z,7.17
2022-08-19T21:35:18.096Z,6.60
2022-08-19T21:37:45.100Z,6.60
2022-08-19T21:40:12.131Z,8.03
2022-08-19T21:42:42.442Z,7.13
2022-08-19T21:45:18.598Z,6.43
2022-08-19T21:47:52.800Z,7.20
2022-08-19T21:50:19.609Z,7.60
2022-08-19T21:52:46.914Z,7.13
2022-08-19T21:55:14.284Z,7.27
2022-08-19T21:57:43.445Z,7.53
2022-08-19T22:00:16.403Z,8.20
2022-08-19T22:02:43.599Z,8.77
2022-08-19T22:05:13.894Z,8.30
2022-08-19T22:07:43.004Z,10.13
2022-08-19T22:10:13.015Z,10.17
2022-08-19T22:12:46.036Z,9.90
2022-08-19T22:15:21.223Z,10.00
2022-08-19T22:17:48.059Z,11.00
2022-08-19T22:20:18.036Z,12.07
2022-08-19T22:22:51.088Z,11.27
2022-08-19T22:25:31.821Z,11.40
2022-08-19T22:28:01.515Z,11.67
2022-08-19T22:30:33.089Z,11.90
2022-08-19T22:33:05.569Z,13.30
2022-08-19T22:35:34.512Z,12.10
2022-08-19T22:38:12.644Z,11.80
2022-08-19T22:40:47.095Z,12.57
2022-08-19T22:43:18.210Z,12.50
2022-08-19T22:45:45.815Z,12.27
2022-08-19T22:48:14.524Z,12.43
2022-08-19T22:51:05.075Z,12.90
2022-08-19T22:53:36.694Z,13.27
2022-08-19T22:56:15.476Z,13.40
2022-08-19T22:58:42.580Z,13.77
2022-08-19T23:01:11.791Z,12.13
2022-08-19T23:03:56.298Z,12.30
2022-08-19T23:06:33.061Z,13.83
2022-08-19T23:09:01.148Z,14.40
2022-08-19T23:11:27.872Z,14.33
2022-08-19T23:13:54.548Z,15.27
2022-08-19T23:16:21.195Z,15.00
2022-08-19T23:18:48.250Z,14.80
2022-08-19T23:21:15.054Z,15.50
2022-08-19T23:23:41.655Z,16.33
2022-08-19T23:26:11.738Z,15.87
2022-08-19T23:29:00.474Z,15.50
2022-08-19T23:31:27.164Z,15.17
2022-08-19T23:33:53.833Z,16.10
2022-08-19T23:36:21.049Z,15.80
2022-08-19T23:38:49.140Z,16.60
2022-08-19T23:41:17.321Z,16.27
2022-08-19T23:43:44.491Z,15.67
2022-08-19T23:46:13.483Z,16.00
2022-08-19T23:48:40.452Z,16.37
2022-08-19T23:51:09.933Z,16.53
2022-08-19T23:53:40.872Z,15.10
2022-08-19T23:56:09.461Z,16.70
2022-08-19T23:58:37.193Z,17.80
